Bury Saint Edmunds, United Kingdom

3:47 AM GMT on December 22, 2014 (GMT +0000)
Mildenhall Air Base | Change Station
CLOSE
Current Station
Airport
Location: Mildenhall RAF,
Elevation: 33 ft
Nearby Weather Stations

Elev 33 ft 52.36 °N, 0.49 °E | Updated 24 minutes ago

Overcast
Overcast
54 °F
Feels Like 54 °F
N
21
Wind Variable Wind from WSW
Gusts 31 mph

Today
High -- | Low -- °F
--% Chance of Precip.
Yesterday
High -- | Low -- °F
Precip. -- in
8:06 AM 3:47 PM
New Moon, 0% visible
Pressure 29.97 in
Visibility 6.2 miles
Clouds Scattered Clouds 1500 ft
Overcast 20000 ft
Dew Point 50 °F
Humidity 88%
Rainfall 0.00 in
Snow Depth Not available.
UV 0 out of 12
Pollen Not available.
Air Quality Not available.
Flu Activity Not available.
SPECI EGUN 220323Z AUTO 24018G27KT 9999 SCT015 OVC200 12/10 A2997 RMK AO2

More Conditions Fewer Conditions

Pressure 29.97 in
Visibility 6.2 miles
Clouds Scattered Clouds 1500 ft
Overcast 20000 ft
Dew Point 50 °F
Humidity 88%
Rainfall 0.00 in
Snow Depth Not available.
UV 0 out of 12
Pollen Not available.
Air Quality Not available.
Flu Activity Not available.
SPECI EGUN 220323Z AUTO 24018G27KT 9999 SCT015 OVC200 12/10 A2997 RMK AO2

More Conditions Fewer Conditions

10-Day Weather Forecast

Almanac

Astronomy

Dec. 22, 2014 Rise Set
Actual Time
Civil Twilight
Nautical Twilight
Astronomical Twilight
Moon
Length of Visible Light
Length of Day
Tomorrow will be .
, % of the Moon is Illuminated

Today's Extremes

Country Highs Country Lows

Community

WunderPhotos

Upload Photos

1,779,531 photos uploaded!

WunderBlogs® & News

Nearby

Air Quality

  Air Quality AQ Index Pollutant
Not available.

Snow Depth

Station Depth Elevation

Earthquake Activity

City Distance Mag. Time & Date
Minimum magnitude displayed is 2.5.

Coastal Water Temperatures

Place Temperature

Nearby Weather Stations